sensor_id;sensor_type;location;lat;lon;timestamp;pressure;altitude;pressure_sealevel;temperature;humidity
21956;BME280;11142;49.930;8.606;2023-04-30T00:00:34;100551.31;;;12.42;100.00
21956;BME280;11142;49.930;8.606;2023-04-30T00:03:02;100542.22;;;12.62;100.00
21956;BME280;11142;49.930;8.606;2023-04-30T00:05:30;100544.59;;;12.52;100.00
21956;BME280;11142;49.930;8.606;2023-04-30T00:07:59;100549.09;;;12.36;100.00
21956;BME280;11142;49.930;8.606;2023-04-30T00:10:27;100547.50;;;12.34;100.00
21956;BME280;11142;49.930;8.606;2023-04-30T00:12:58;100545.13;;;12.57;100.00
21956;BME280;11142;49.930;8.606;2023-04-30T00:15:27;100542.63;;;12.68;100.00
21956;BME280;11142;49.930;8.606;2023-04-30T00:17:55;100546.78;;;12.98;100.00
21956;BME280;11142;49.930;8.606;2023-04-30T00:20:23;100541.81;;;13.07;100.00
21956;BME280;11142;49.930;8.606;2023-04-30T00:22:50;100551.03;;;12.86;100.00
21956;BME280;11142;49.930;8.606;2023-04-30T00:25:18;100550.03;;;12.62;100.00
21956;BME280;11142;49.930;8.606;2023-04-30T00:27:49;100552.75;;;12.46;100.00
21956;BME280;11142;49.930;8.606;2023-04-30T00:30:19;100545.84;;;12.59;100.00
21956;BME280;11142;49.930;8.606;2023-04-30T00:32:47;100550.53;;;12.81;100.00
21956;BME280;11142;49.930;8.606;2023-04-30T00:35:15;100549.88;;;12.77;100.00
21956;BME280;11142;49.930;8.606;2023-04-30T00:37:43;100551.97;;;13.12;100.00
21956;BME280;11142;49.930;8.606;2023-04-30T00:40:11;100552.41;;;13.18;100.00
21956;BME280;11142;49.930;8.606;2023-04-30T00:42:40;100558.84;;;13.25;100.00
21956;BME280;11142;49.930;8.606;2023-04-30T00:45:08;100559.81;;;12.98;100.00
21956;BME280;11142;49.930;8.606;2023-04-30T00:47:38;100557.41;;;12.95;100.00
21956;BME280;11142;49.930;8.606;2023-04-30T00:50:06;100558.44;;;13.19;100.00
21956;BME280;11142;49.930;8.606;2023-04-30T00:52:35;100560.53;;;13.52;100.00
21956;BME280;11142;49.930;8.606;2023-04-30T00:55:03;100565.47;;;13.56;100.00
21956;BME280;11142;49.930;8.606;2023-04-30T00:57:31;100568.50;;;13.63;100.00
21956;BME280;11142;49.930;8.606;2023-04-30T01:00:01;100567.00;;;13.46;100.00
21956;BME280;11142;49.930;8.606;2023-04-30T01:02:29;100570.56;;;13.45;100.00
21956;BME280;11142;49.930;8.606;2023-04-30T01:04:59;100567.69;;;13.10;100.00
21956;BME280;11142;49.930;8.606;2023-04-30T01:07:28;100560.22;;;13.18;100.00
21956;BME280;11142;49.930;8.606;2023-04-30T01:09:56;100562.66;;;13.07;100.00
21956;BME280;11142;49.930;8.606;2023-04-30T01:12:25;100562.59;;;13.09;100.00
21956;BME280;11142;49.930;8.606;2023-04-30T01:14:56;100565.63;;;12.89;100.00
21956;BME280;11142;49.930;8.606;2023-04-30T01:17:29;100569.63;;;13.07;100.00
21956;BME280;11142;49.930;8.606;2023-04-30T01:20:00;100563.13;;;13.26;100.00
21956;BME280;11142;49.930;8.606;2023-04-30T01:22:35;100568.25;;;13.28;100.00
21956;BME280;11142;49.930;8.606;2023-04-30T01:25:13;100561.44;;;13.13;100.00
21956;BME280;11142;49.930;8.606;2023-04-30T01:27:58;100568.03;;;12.92;100.00
21956;BME280;11142;49.930;8.606;2023-04-30T01:30:32;100562.84;;;13.31;100.00
21956;BME280;11142;49.930;8.606;2023-04-30T01:33:00;100565.66;;;13.41;100.00
21956;BME280;11142;49.930;8.606;2023-04-30T01:35:39;100566.72;;;13.63;100.00
21956;BME280;11142;49.930;8.606;2023-04-30T01:38:17;100559.09;;;13.60;100.00
21956;BME280;11142;49.930;8.606;2023-04-30T01:40:50;100561.81;;;13.59;100.00
21956;BME280;11142;49.930;8.606;2023-04-30T01:43:26;100565.13;;;13.61;100.00
21956;BME280;11142;49.930;8.606;2023-04-30T01:45:56;100562.59;;;13.09;100.00
21956;BME280;11142;49.930;8.606;2023-04-30T01:48:31;100561.56;;;13.11;100.00
21956;BME280;11142;49.930;8.606;2023-04-30T01:51:03;100565.63;;;13.15;100.00
21956;BME280;11142;49.930;8.606;2023-04-30T01:53:37;100563.88;;;13.16;100.00
21956;BME280;11142;49.930;8.606;2023-04-30T01:56:08;100566.59;;;13.27;100.00
21956;BME280;11142;49.930;8.606;2023-04-30T01:58:39;100570.88;;;13.28;100.00
21956;BME280;11142;49.930;8.606;2023-04-30T02:01:07;100569.47;;;13.22;100.00
21956;BME280;11142;49.930;8.606;2023-04-30T02:03:52;100576.34;;;13.11;100.00
21956;BME280;11142;49.930;8.606;2023-04-30T02:06:20;100573.59;;;13.00;100.00
21956;BME280;11142;49.930;8.606;2023-04-30T02:08:48;100583.44;;;12.82;100.00
21956;BME280;11142;49.930;8.606;2023-04-30T02:11:16;100582.94;;;12.90;100.00
21956;BME280;11142;49.930;8.606;2023-04-30T02:13:45;100584.09;;;12.59;100.00
21956;BME280;11142;49.930;8.606;2023-04-30T02:16:13;100582.03;;;12.23;100.00
21956;BME280;11142;49.930;8.606;2023-04-30T02:18:41;100577.84;;;12.06;100.00
21956;BME280;11142;49.930;8.606;2023-04-30T02:21:09;100575.19;;;12.08;100.00
21956;BME280;11142;49.930;8.606;2023-04-30T02:23:37;100578.47;;;12.24;100.00
21956;BME280;11142;49.930;8.606;2023-04-30T02:26:06;100581.63;;;12.29;100.00
21956;BME280;11142;49.930;8.606;2023-04-30T02:28:34;100591.28;;;12.41;100.00
21956;BME280;11142;49.930;8.606;2023-04-30T02:31:04;100583.72;;;12.10;100.00
21956;BME280;11142;49.930;8.606;2023-04-30T02:33:33;100580.75;;;11.88;100.00
21956;BME280;11142;49.930;8.606;2023-04-30T02:36:01;100579.44;;;11.95;100.00
21956;BME280;11142;49.930;8.606;2023-04-30T02:38:29;100573.78;;;11.74;100.00
21956;BME280;11142;49.930;8.606;2023-04-30T02:40:56;100575.78;;;11.55;100.00
21956;BME280;11142;49.930;8.606;2023-04-30T02:43:24;100569.94;;;11.65;100.00
21956;BME280;11142;49.930;8.606;2023-04-30T02:45:52;100576.25;;;11.61;100.00
21956;BME280;11142;49.930;8.606;2023-04-30T02:48:22;100579.97;;;11.57;100.00
21956;BME280;11142;49.930;8.606;2023-04-30T02:50:50;100570.50;;;11.56;100.00
21956;BME280;11142;49.930;8.606;2023-04-30T02:53:18;100568.75;;;11.57;100.00
21956;BME280;11142;49.930;8.606;2023-04-30T02:55:46;100567.81;;;11.86;100.00
21956;BME280;11142;49.930;8.606;2023-04-30T02:58:14;100570.91;;;11.79;100.00
21956;BME280;11142;49.930;8.606;2023-04-30T03:00:42;100568.22;;;11.94;100.00
21956;BME280;11142;49.930;8.606;2023-04-30T03:03:11;100577.66;;;12.09;100.00
21956;BME280;11142;49.930;8.606;2023-04-30T03:05:44;100582.97;;;11.80;100.00
21956;BME280;11142;49.930;8.606;2023-04-30T03:08:12;100580.69;;;11.45;100.00
21956;BME280;11142;49.930;8.606;2023-04-30T03:10:42;100573.00;;;11.58;100.00
21956;BME280;11142;49.930;8.606;2023-04-30T03:13:10;100575.28;;;11.48;100.00
21956;BME280;11142;49.930;8.606;2023-04-30T03:15:38;100566.41;;;11.38;100.00
21956;BME280;11142;49.930;8.606;2023-04-30T03:18:07;100568.22;;;11.36;100.00
21956;BME280;11142;49.930;8.606;2023-04-30T03:20:37;100563.69;;;11.26;100.00
21956;BME280;11142;49.930;8.606;2023-04-30T03:23:06;100568.59;;;11.16;100.00
21956;BME280;11142;49.930;8.606;2023-04-30T03:25:34;100568.13;;;11.24;100.00
21956;BME280;11142;49.930;8.606;2023-04-30T03:28:03;100563.56;;;11.27;100.00
21956;BME280;11142;49.930;8.606;2023-04-30T03:30:32;100561.91;;;11.26;100.00
21956;BME280;11142;49.930;8.606;2023-04-30T03:33:00;100559.75;;;11.18;100.00
21956;BME280;11142;49.930;8.606;2023-04-30T03:35:29;100565.19;;;11.00;100.00
21956;BME280;11142;49.930;8.606;2023-04-30T03:37:57;100556.56;;;10.99;100.00
21956;BME280;11142;49.930;8.606;2023-04-30T03:40:27;100562.13;;;11.07;100.00
21956;BME280;11142;49.930;8.606;2023-04-30T03:42:56;100562.94;;;10.94;100.00
21956;BME280;11142;49.930;8.606;2023-04-30T03:45:24;100559.72;;;11.04;100.00
21956;BME280;11142;49.930;8.606;2023-04-30T03:47:53;100565.56;;;11.08;100.00
21956;BME280;11142;49.930;8.606;2023-04-30T03:50:22;100565.88;;;10.88;100.00
21956;BME280;11142;49.930;8.606;2023-04-30T03:52:50;100567.69;;;11.01;100.00
21956;BME280;11142;49.930;8.606;2023-04-30T03:55:18;100563.28;;;11.17;100.00
21956;BME280;11142;49.930;8.606;2023-04-30T03:57:47;100567.28;;;11.23;100.00
21956;BME280;11142;49.930;8.606;2023-04-30T04:00:16;100567.63;;;11.17;100.00
21956;BME280;11142;49.930;8.606;2023-04-30T04:02:51;100567.56;;;11.33;100.00
21956;BME280;11142;49.930;8.606;2023-04-30T04:05:19;100562.38;;;11.33;100.00
21956;BME280;11142;49.930;8.606;2023-04-30T04:07:47;100566.91;;;11.15;100.00
21956;BME280;11142;49.930;8.606;2023-04-30T04:10:15;100565.44;;;11.25;100.00
21956;BME280;11142;49.930;8.606;2023-04-30T04:12:45;100564.78;;;11.22;100.00
21956;BME280;11142;49.930;8.606;2023-04-30T04:15:15;100564.13;;;11.18;100.00
21956;BME280;11142;49.930;8.606;2023-04-30T04:17:47;100575.66;;;11.28;100.00
21956;BME280;11142;49.930;8.606;2023-04-30T04:20:15;100573.84;;;11.14;100.00
21956;BME280;11142;49.930;8.606;2023-04-30T04:22:44;100575.72;;;11.12;100.00
21956;BME280;11142;49.930;8.606;2023-04-30T04:25:12;100583.09;;;11.04;100.00
21956;BME280;11142;49.930;8.606;2023-04-30T04:27:42;100579.34;;;10.94;100.00
21956;BME280;11142;49.930;8.606;2023-04-30T04:30:11;100589.81;;;10.93;100.00
21956;BME280;11142;49.930;8.606;2023-04-30T04:32:41;100586.81;;;10.85;100.00
21956;BME280;11142;49.930;8.606;2023-04-30T04:35:17;100581.44;;;11.03;100.00
21956;BME280;11142;49.930;8.606;2023-04-30T04:37:46;100588.09;;;11.07;100.00
21956;BME280;11142;49.930;8.606;2023-04-30T04:40:15;100580.59;;;11.03;100.00
21956;BME280;11142;49.930;8.606;2023-04-30T04:42:44;100588.31;;;10.89;100.00
21956;BME280;11142;49.930;8.606;2023-04-30T04:45:13;100591.97;;;11.16;100.00
21956;BME280;11142;49.930;8.606;2023-04-30T04:47:43;100596.25;;;11.31;100.00
21956;BME280;11142;49.930;8.606;2023-04-30T04:50:13;100594.25;;;11.06;100.00
21956;BME280;11142;49.930;8.606;2023-04-30T04:52:41;100591.34;;;10.97;100.00
21956;BME280;11142;49.930;8.606;2023-04-30T04:55:09;100590.44;;;11.12;100.00
21956;BME280;11142;49.930;8.606;2023-04-30T04:57:38;100599.50;;;11.05;100.00
21956;BME280;11142;49.930;8.606;2023-04-30T05:00:07;100598.63;;;11.20;100.00
21956;BME280;11142;49.930;8.606;2023-04-30T05:02:38;100593.91;;;11.27;100.00
21956;BME280;11142;49.930;8.606;2023-04-30T05:05:08;100598.69;;;10.89;100.00
21956;BME280;11142;49.930;8.606;2023-04-30T05:07:37;100600.78;;;10.98;100.00
21956;BME280;11142;49.930;8.606;2023-04-30T05:10:07;100600.25;;;11.07;100.00
21956;BME280;11142;49.930;8.606;2023-04-30T05:12:35;100603.69;;;11.37;100.00
21956;BME280;11142;49.930;8.606;2023-04-30T05:15:05;100607.63;;;11.44;100.00
21956;BME280;11142;49.930;8.606;2023-04-30T05:17:33;100609.50;;;11.27;100.00
21956;BME280;11142;49.930;8.606;2023-04-30T05:20:01;100603.03;;;11.34;100.00
21956;BME280;11142;49.930;8.606;2023-04-30T05:22:32;100607.69;;;11.43;100.00
21956;BME280;11142;49.930;8.606;2023-04-30T05:25:00;100612.03;;;11.28;100.00
21956;BME280;11142;49.930;8.606;2023-04-30T05:27:29;100602.50;;;11.43;100.00
21956;BME280;11142;49.930;8.606;2023-04-30T05:29:58;100603.75;;;11.36;100.00
21956;BME280;11142;49.930;8.606;2023-04-30T05:32:28;100597.00;;;11.33;100.00
21956;BME280;11142;49.930;8.606;2023-04-30T05:34:57;100607.94;;;11.24;100.00
21956;BME280;11142;49.930;8.606;2023-04-30T05:37:25;100604.84;;;11.17;100.00
21956;BME280;11142;49.930;8.606;2023-04-30T05:39:56;100606.81;;;11.28;100.00
21956;BME280;11142;49.930;8.606;2023-04-30T05:42:24;100605.78;;;11.60;100.00
21956;BME280;11142;49.930;8.606;2023-04-30T05:44:53;100615.13;;;11.79;100.00
21956;BME280;11142;49.930;8.606;2023-04-30T05:47:22;100610.94;;;11.16;100.00
21956;BME280;11142;49.930;8.606;2023-04-30T05:49:50;100613.63;;;11.45;100.00
21956;BME280;11142;49.930;8.606;2023-04-30T05:52:19;100622.06;;;11.48;100.00
21956;BME280;11142;49.930;8.606;2023-04-30T05:54:47;100619.75;;;11.88;100.00
21956;BME280;11142;49.930;8.606;2023-04-30T05:57:19;100616.69;;;11.81;100.00
21956;BME280;11142;49.930;8.606;2023-04-30T05:59:48;100613.72;;;11.73;100.00
21956;BME280;11142;49.930;8.606;2023-04-30T06:02:16;100620.84;;;11.69;100.00
21956;BME280;11142;49.930;8.606;2023-04-30T06:04:46;100616.94;;;11.77;100.00
21956;BME280;11142;49.930;8.606;2023-04-30T06:07:14;100612.38;;;11.66;100.00
21956;BME280;11142;49.930;8.606;2023-04-30T06:09:43;100613.81;;;11.42;100.00
21956;BME280;11142;49.930;8.606;2023-04-30T06:12:11;100609.50;;;11.27;100.00
21956;BME280;11142;49.930;8.606;2023-04-30T06:14:42;100618.22;;;11.69;100.00
21956;BME280;11142;49.930;8.606;2023-04-30T06:17:11;100618.47;;;11.95;100.00
21956;BME280;11142;49.930;8.606;2023-04-30T06:19:40;100614.34;;;12.19;100.00
21956;BME280;11142;49.930;8.606;2023-04-30T06:22:09;100625.75;;;12.31;100.00
21956;BME280;11142;49.930;8.606;2023-04-30T06:24:38;100617.19;;;12.57;100.00
21956;BME280;11142;49.930;8.606;2023-04-30T06:27:06;100614.59;;;12.84;100.00
21956;BME280;11142;49.930;8.606;2023-04-30T06:29:35;100613.69;;;12.97;100.00
21956;BME280;11142;49.930;8.606;2023-04-30T06:32:06;100630.13;;;13.76;100.00
21956;BME280;11142;49.930;8.606;2023-04-30T06:34:34;100626.28;;;13.95;100.00
21956;BME280;11142;49.930;8.606;2023-04-30T06:37:02;100616.63;;;15.17;100.00
21956;BME280;11142;49.930;8.606;2023-04-30T06:39:31;100620.00;;;15.65;100.00
21956;BME280;11142;49.930;8.606;2023-04-30T06:41:59;100626.16;;;14.70;100.00
21956;BME280;11142;49.930;8.606;2023-04-30T06:44:27;100636.31;;;13.88;100.00
21956;BME280;11142;49.930;8.606;2023-04-30T06:46:57;100633.75;;;13.36;100.00
21956;BME280;11142;49.930;8.606;2023-04-30T06:49:26;100633.56;;;14.15;100.00
21956;BME280;11142;49.930;8.606;2023-04-30T06:51:55;100629.91;;;14.66;100.00
21956;BME280;11142;49.930;8.606;2023-04-30T06:54:24;100628.06;;;13.94;100.00
21956;BME280;11142;49.930;8.606;2023-04-30T06:56:53;100628.13;;;14.18;100.00
21956;BME280;11142;49.930;8.606;2023-04-30T06:59:21;100630.44;;;13.97;100.00
21956;BME280;11142;49.930;8.606;2023-04-30T07:01:49;100625.66;;;14.89;100.00
21956;BME280;11142;49.930;8.606;2023-04-30T07:04:17;100628.47;;;15.10;95.50
21956;BME280;11142;49.930;8.606;2023-04-30T07:06:47;100625.47;;;15.73;89.44
21956;BME280;11142;49.930;8.606;2023-04-30T07:09:16;100626.63;;;15.23;91.42
21956;BME280;11142;49.930;8.606;2023-04-30T07:11:47;100626.84;;;15.20;93.07
21956;BME280;11142;49.930;8.606;2023-04-30T07:14:15;100630.09;;;14.76;98.34
21956;BME280;11142;49.930;8.606;2023-04-30T07:16:44;100627.19;;;16.07;84.67
21956;BME280;11142;49.930;8.606;2023-04-30T07:19:13;100623.47;;;16.21;86.56
21956;BME280;11142;49.930;8.606;2023-04-30T07:21:43;100620.28;;;16.28;80.36
21956;BME280;11142;49.930;8.606;2023-04-30T07:24:12;100633.25;;;16.19;82.02
21956;BME280;11142;49.930;8.606;2023-04-30T07:26:41;100629.66;;;16.09;84.20
21956;BME280;11142;49.930;8.606;2023-04-30T07:29:09;100635.56;;;17.41;77.67
21956;BME280;11142;49.930;8.606;2023-04-30T07:31:37;100624.75;;;18.36;67.98
21956;BME280;11142;49.930;8.606;2023-04-30T07:34:05;100626.19;;;17.59;71.54
21956;BME280;11142;49.930;8.606;2023-04-30T07:36:34;100626.75;;;16.78;74.23
21956;BME280;11142;49.930;8.606;2023-04-30T07:39:03;100624.25;;;17.40;72.05
21956;BME280;11142;49.930;8.606;2023-04-30T07:41:33;100625.13;;;16.44;74.18
21956;BME280;11142;49.930;8.606;2023-04-30T07:44:02;100631.44;;;16.64;71.86
21956;BME280;11142;49.930;8.606;2023-04-30T07:46:30;100625.38;;;16.52;73.01
21956;BME280;11142;49.930;8.606;2023-04-30T07:48:58;100628.03;;;16.30;73.92
21956;BME280;11142;49.930;8.606;2023-04-30T07:51:26;100630.56;;;16.85;72.57
21956;BME280;11142;49.930;8.606;2023-04-30T07:53:54;100625.13;;;16.44;73.48
21956;BME280;11142;49.930;8.606;2023-04-30T07:56:23;100619.22;;;15.98;76.71
21956;BME280;11142;49.930;8.606;2023-04-30T07:58:53;100623.22;;;17.52;70.65
21956;BME280;11142;49.930;8.606;2023-04-30T08:01:21;100625.88;;;18.03;65.51
21956;BME280;11142;49.930;8.606;2023-04-30T08:03:49;100625.88;;;18.93;62.38
21956;BME280;11142;49.930;8.606;2023-04-30T08:06:18;100623.94;;;19.33;59.43
21956;BME280;11142;49.930;8.606;2023-04-30T08:08:46;100625.94;;;19.87;56.22
21956;BME280;11142;49.930;8.606;2023-04-30T08:11:16;100621.31;;;20.63;52.89
21956;BME280;11142;49.930;8.606;2023-04-30T08:13:44;100630.44;;;21.57;48.15
21956;BME280;11142;49.930;8.606;2023-04-30T08:16:14;100626.72;;;19.51;54.25
21956;BME280;11142;49.930;8.606;2023-04-30T08:18:43;100626.56;;;20.08;51.77
21956;BME280;11142;49.930;8.606;2023-04-30T08:21:12;100635.38;;;19.80;52.60
21956;BME280;11142;49.930;8.606;2023-04-30T08:23:40;100630.31;;;20.43;50.28
21956;BME280;11142;49.930;8.606;2023-04-30T08:26:08;100625.09;;;20.78;49.31
21956;BME280;11142;49.930;8.606;2023-04-30T08:28:36;100615.91;;;19.06;51.89
21956;BME280;11142;49.930;8.606;2023-04-30T08:31:04;100617.75;;;17.56;59.55
21956;BME280;11142;49.930;8.606;2023-04-30T08:33:33;100614.09;;;19.45;53.19
21956;BME280;11142;49.930;8.606;2023-04-30T08:36:01;100616.16;;;20.44;51.14
21956;BME280;11142;49.930;8.606;2023-04-30T08:38:29;100615.38;;;21.32;47.94
21956;BME280;11142;49.930;8.606;2023-04-30T08:41:01;100616.75;;;21.00;45.53
21956;BME280;11142;49.930;8.606;2023-04-30T08:43:33;100614.47;;;20.43;48.91
21956;BME280;11142;49.930;8.606;2023-04-30T08:46:01;100618.81;;;20.07;48.26
21956;BME280;11142;49.930;8.606;2023-04-30T08:48:29;100612.19;;;20.30;47.29
21956;BME280;11142;49.930;8.606;2023-04-30T08:51:00;100608.56;;;20.58;46.78
21956;BME280;11142;49.930;8.606;2023-04-30T08:53:29;100614.09;;;21.00;45.81
21956;BME280;11142;49.930;8.606;2023-04-30T08:55:57;100611.63;;;21.16;44.77
21956;BME280;11142;49.930;8.606;2023-04-30T08:58:26;100608.59;;;20.94;45.19
21956;BME280;11142;49.930;8.606;2023-04-30T09:00:53;100614.81;;;20.30;44.72
21956;BME280;11142;49.930;8.606;2023-04-30T09:03:24;100604.13;;;19.39;46.33
21956;BME280;11142;49.930;8.606;2023-04-30T09:05:53;100608.25;;;18.65;48.56
21956;BME280;11142;49.930;8.606;2023-04-30T09:11:25;100598.66;;;19.79;45.71
21956;BME280;11142;49.930;8.606;2023-04-30T09:13:54;100589.34;;;18.99;45.82
21956;BME280;11142;49.930;8.606;2023-04-30T09:16:23;100595.97;;;19.23;46.48
21956;BME280;11142;49.930;8.606;2023-04-30T09:18:52;100600.56;;;19.86;44.20
21956;BME280;11142;49.930;8.606;2023-04-30T09:21:30;100606.00;;;19.85;44.76
21956;BME280;11142;49.930;8.606;2023-04-30T09:23:59;100595.81;;;19.34;46.26
21956;BME280;11142;49.930;8.606;2023-04-30T09:26:31;100598.44;;;17.87;47.28
21956;BME280;11142;49.930;8.606;2023-04-30T09:28:59;100590.09;;;18.52;46.97
21956;BME280;11142;49.930;8.606;2023-04-30T09:31:34;100589.38;;;18.00;48.41
21956;BME280;11142;49.930;8.606;2023-04-30T09:34:02;100589.31;;;17.40;48.56
21956;BME280;11142;49.930;8.606;2023-04-30T09:36:32;100583.00;;;18.43;48.12
21956;BME280;11142;49.930;8.606;2023-04-30T09:39:06;100571.06;;;18.20;48.33
21956;BME280;11142;49.930;8.606;2023-04-30T09:41:42;100573.91;;;19.62;44.82
21956;BME280;11142;49.930;8.606;2023-04-30T09:44:24;100574.06;;;19.13;46.08
21956;BME280;11142;49.930;8.606;2023-04-30T09:46:53;100569.22;;;19.37;44.46
21956;BME280;11142;49.930;8.606;2023-04-30T09:49:22;100570.56;;;20.34;42.83
21956;BME280;11142;49.930;8.606;2023-04-30T09:51:54;100568.06;;;19.68;43.40
21956;BME280;11142;49.930;8.606;2023-04-30T09:54:24;100562.59;;;19.04;44.99
21956;BME280;11142;49.930;8.606;2023-04-30T09:56:54;100576.72;;;19.13;44.71
21956;BME280;11142;49.930;8.606;2023-04-30T09:59:25;100569.81;;;19.12;43.80
21956;BME280;11142;49.930;8.606;2023-04-30T10:01:56;100557.72;;;19.19;44.54
21956;BME280;11142;49.930;8.606;2023-04-30T10:04:26;100566.94;;;19.71;42.63
21956;BME280;11142;49.930;8.606;2023-04-30T10:06:55;100566.47;;;19.09;42.18
21956;BME280;11142;49.930;8.606;2023-04-30T10:09:25;100564.38;;;19.32;42.70
21956;BME280;11142;49.930;8.606;2023-04-30T10:11:58;100557.09;;;19.63;41.36
21956;BME280;11142;49.930;8.606;2023-04-30T10:14:28;100556.13;;;21.86;37.82
21956;BME280;11142;49.930;8.606;2023-04-30T10:17:02;100562.59;;;20.96;38.51
21956;BME280;11142;49.930;8.606;2023-04-30T10:19:33;100549.53;;;22.15;37.00
21956;BME280;11142;49.930;8.606;2023-04-30T10:22:03;100547.34;;;21.51;37.18
21956;BME280;11142;49.930;8.606;2023-04-30T10:24:32;100537.44;;;23.27;35.00
21956;BME280;11142;49.930;8.606;2023-04-30T10:27:03;100544.16;;;25.31;32.10
21956;BME280;11142;49.930;8.606;2023-04-30T10:29:31;100538.81;;;24.25;34.48
21956;BME280;11142;49.930;8.606;2023-04-30T10:32:00;100527.44;;;23.38;32.81
21956;BME280;11142;49.930;8.606;2023-04-30T10:34:34;100530.22;;;24.46;32.12
21956;BME280;11142;49.930;8.606;2023-04-30T10:37:06;100537.97;;;23.86;31.90
21956;BME280;11142;49.930;8.606;2023-04-30T10:39:34;100517.94;;;22.06;34.85
21956;BME280;11142;49.930;8.606;2023-04-30T10:42:07;100497.28;;;25.01;32.56
21956;BME280;11142;49.930;8.606;2023-04-30T10:44:37;100514.38;;;25.35;31.27
21956;BME280;11142;49.930;8.606;2023-04-30T10:47:06;100505.03;;;22.85;33.24
21956;BME280;11142;49.930;8.606;2023-04-30T10:49:35;100512.78;;;20.76;37.15
21956;BME280;11142;49.930;8.606;2023-04-30T10:52:04;100503.66;;;23.21;34.04
21956;BME280;11142;49.930;8.606;2023-04-30T10:54:34;100504.56;;;22.23;35.14
21956;BME280;11142;49.930;8.606;2023-04-30T10:57:10;100502.97;;;23.52;34.94
21956;BME280;11142;49.930;8.606;2023-04-30T10:59:44;100507.53;;;25.85;29.75
21956;BME280;11142;49.930;8.606;2023-04-30T11:02:14;100512.72;;;27.35;27.59
21956;BME280;11142;49.930;8.606;2023-04-30T11:07:30;100500.00;;;26.60;29.27
21956;BME280;11142;49.930;8.606;2023-04-30T11:09:59;100505.75;;;25.04;29.33
21956;BME280;11142;49.930;8.606;2023-04-30T11:12:28;100497.19;;;24.49;31.42
21956;BME280;11142;49.930;8.606;2023-04-30T11:14:59;100497.56;;;22.89;33.40
21956;BME280;11142;49.930;8.606;2023-04-30T11:17:27;100496.97;;;21.19;34.15
21956;BME280;11142;49.930;8.606;2023-04-30T11:19:57;100489.53;;;21.82;34.62
21956;BME280;11142;49.930;8.606;2023-04-30T11:22:25;100489.63;;;20.87;36.67
21956;BME280;11142;49.930;8.606;2023-04-30T11:25:02;100483.84;;;24.79;31.14
21956;BME280;11142;49.930;8.606;2023-04-30T11:27:33;100492.41;;;24.21;32.69
21956;BME280;11142;49.930;8.606;2023-04-30T11:30:01;100487.88;;;27.62;28.12
21956;BME280;11142;49.930;8.606;2023-04-30T11:32:31;100481.78;;;30.11;24.25
21956;BME280;11142;49.930;8.606;2023-04-30T11:34:59;100489.47;;;29.17;24.25
21956;BME280;11142;49.930;8.606;2023-04-30T11:37:29;100481.66;;;25.79;28.66
21956;BME280;11142;49.930;8.606;2023-04-30T11:39:59;100482.47;;;29.10;24.61
21956;BME280;11142;49.930;8.606;2023-04-30T11:42:27;100492.16;;;35.31;19.38
21956;BME280;11142;49.930;8.606;2023-04-30T11:45:05;100487.91;;;36.86;19.34
21956;BME280;11142;49.930;8.606;2023-04-30T11:47:37;100502.22;;;37.65;18.04
21956;BME280;11142;49.930;8.606;2023-04-30T11:50:06;100477.22;;;35.45;18.63
21956;BME280;11142;49.930;8.606;2023-04-30T11:52:34;100474.09;;;29.83;22.97
21956;BME280;11142;49.930;8.606;2023-04-30T11:55:06;100476.22;;;31.00;22.70
21956;BME280;11142;49.930;8.606;2023-04-30T11:57:38;100468.38;;;29.67;23.35
21956;BME280;11142;49.930;8.606;2023-04-30T12:00:10;100469.63;;;28.13;25.12
21956;BME280;11142;49.930;8.606;2023-04-30T12:02:39;100463.16;;;29.14;24.10
21956;BME280;11142;49.930;8.606;2023-04-30T12:05:11;100445.31;;;25.65;28.03
21956;BME280;11142;49.930;8.606;2023-04-30T12:07:39;100442.69;;;27.48;26.49
21956;BME280;11142;49.930;8.606;2023-04-30T12:10:11;100452.09;;;32.50;21.55
21956;BME280;11142;49.930;8.606;2023-04-30T12:12:40;100438.06;;;31.89;21.59
21956;BME280;11142;49.930;8.606;2023-04-30T12:15:16;100437.44;;;31.39;22.19
21956;BME280;11142;49.930;8.606;2023-04-30T12:17:44;100451.22;;;33.26;21.43
21956;BME280;11142;49.930;8.606;2023-04-30T12:20:12;100441.91;;;34.42;18.53
21956;BME280;11142;49.930;8.606;2023-04-30T12:22:41;100435.06;;;32.15;21.17
21956;BME280;11142;49.930;8.606;2023-04-30T12:25:11;100441.50;;;29.42;23.16
21956;BME280;11142;49.930;8.606;2023-04-30T12:27:40;100438.78;;;31.30;21.46
21956;BME280;11142;49.930;8.606;2023-04-30T12:30:08;100448.38;;;32.75;20.41
21956;BME280;11142;49.930;8.606;2023-04-30T12:32:38;100448.13;;;31.64;21.87
21956;BME280;11142;49.930;8.606;2023-04-30T12:35:07;100442.03;;;30.08;22.02
21956;BME280;11142;49.930;8.606;2023-04-30T12:37:35;100444.69;;;34.02;20.45
21956;BME280;11142;49.930;8.606;2023-04-30T12:40:03;100431.84;;;30.79;21.88
21956;BME280;11142;49.930;8.606;2023-04-30T12:42:34;100436.25;;;31.35;20.98
21956;BME280;11142;49.930;8.606;2023-04-30T12:45:02;100430.00;;;29.28;23.35
21956;BME280;11142;49.930;8.606;2023-04-30T12:47:30;100433.28;;;29.37;24.36
21956;BME280;11142;49.930;8.606;2023-04-30T12:50:00;100423.69;;;28.96;23.50
21956;BME280;11142;49.930;8.606;2023-04-30T12:52:28;100413.81;;;28.97;25.01
21956;BME280;11142;49.930;8.606;2023-04-30T12:54:55;100412.06;;;27.91;25.22
21956;BME280;11142;49.930;8.606;2023-04-30T12:57:23;100400.34;;;26.06;27.29
21956;BME280;11142;49.930;8.606;2023-04-30T12:59:55;100398.91;;;26.46;26.77
21956;BME280;11142;49.930;8.606;2023-04-30T13:02:24;100401.38;;;27.91;26.15